Time;durP1;ratioP1;P1;durP2;ratioP2;P2;SDS_P1;SDS_P2;PMS_P1;PMS_P2;Temp;Humidity;BMP_temperature;BMP_pressure;BME280_temperature;BME280_humidity;BME280_pressure;Samples;Min_cycle;Max_cycle;Signal;HPM_P1;HPM_P2
2023/04/20 00:01:51;;;;;;;12.57;4.07;;;23.50;58.80;;;;;;4837754;29;20041;-75
2023/04/20 00:04:17;;;;;;;8.23;4.40;;;23.60;58.70;;;;;;4839569;29;20542;-74
2023/04/20 00:06:44;;;;;;;7.30;4.05;;;23.40;58.70;;;;;;4838066;29;20075;-75
2023/04/20 00:09:12;;;;;;;8.05;4.30;;;23.50;58.90;;;;;;4839675;29;20503;-74
2023/04/20 00:11:38;;;;;;;6.72;4.43;;;23.40;58.60;;;;;;4841845;29;20384;-75
2023/04/20 00:14:04;;;;;;;9.70;4.45;;;23.60;58.60;;;;;;4841200;29;20038;-75
2023/04/20 00:16:30;;;;;;;5.13;3.97;;;23.40;58.60;;;;;;4837240;29;20128;-74
2023/04/20 00:18:58;;;;;;;5.22;3.67;;;23.40;58.50;;;;;;4852961;29;20511;-75
2023/04/20 00:21:24;;;;;;;7.20;4.35;;;23.50;58.90;;;;;;4840454;29;20030;-75
2023/04/20 00:23:51;;;;;;;6.10;4.07;;;23.50;58.50;;;;;;4855683;29;20034;-75
2023/04/20 00:26:17;;;;;;;6.72;4.07;;;23.50;58.70;;;;;;4838507;29;20129;-74
2023/04/20 00:28:49;;;;;;;6.68;4.47;;;23.30;58.80;;;;;;4839026;29;20045;-72
2023/04/20 00:31:16;;;;;;;13.43;3.72;;;23.20;58.80;;;;;;4839580;29;20038;-74
2023/04/20 00:33:42;;;;;;;7.72;4.45;;;23.30;59.00;;;;;;4840837;29;20038;-74
2023/04/20 00:36:08;;;;;;;9.82;3.88;;;23.40;59.00;;;;;;4839593;29;20458;-75
2023/04/20 00:38:35;;;;;;;8.55;5.00;;;23.40;58.80;;;;;;4836502;29;20042;-75
2023/04/20 00:41:01;;;;;;;6.03;3.47;;;23.30;58.70;;;;;;4837768;29;20030;-73
2023/04/20 00:43:30;;;;;;;8.55;3.88;;;23.40;59.10;;;;;;4838922;29;20129;-74
2023/04/20 00:45:56;;;;;;;6.07;4.18;;;23.30;58.90;;;;;;4837862;29;20050;-75
2023/04/20 00:48:22;;;;;;;16.70;3.67;;;23.40;58.80;;;;;;4839381;29;20079;-74
2023/04/20 00:50:49;;;;;;;7.28;4.05;;;23.50;59.00;;;;;;4838391;29;20053;-75
2023/04/20 00:53:17;;;;;;;5.35;4.32;;;23.50;58.80;;;;;;4854869;29;20045;-75
2023/04/20 00:55:43;;;;;;;8.25;4.18;;;23.40;58.70;;;;;;4840515;29;20042;-74
2023/04/20 00:58:11;;;;;;;7.15;4.00;;;23.50;58.90;;;;;;4839382;29;20116;-74
2023/04/20 01:00:39;;;;;;;6.32;3.85;;;23.50;59.10;;;;;;4839221;29;20046;-75
2023/04/20 01:03:06;;;;;;;6.13;3.85;;;23.50;59.00;;;;;;4838571;29;20113;-74
2023/04/20 01:05:32;;;;;;;5.97;3.88;;;23.50;59.00;;;;;;4839944;29;20106;-74
2023/04/20 01:07:58;;;;;;;5.53;4.00;;;23.40;58.90;;;;;;4824192;29;20062;-74
2023/04/20 01:10:29;;;;;;;5.38;3.72;;;23.40;58.90;;;;;;4839146;29;20037;-75
2023/04/20 01:12:55;;;;;;;6.47;3.83;;;23.30;58.90;;;;;;4840774;29;20087;-73
2023/04/20 01:15:21;;;;;;;11.40;4.07;;;23.40;58.90;;;;;;4836517;29;20495;-74
2023/04/20 01:17:48;;;;;;;13.57;4.50;;;23.30;59.10;;;;;;4836450;29;20126;-75
2023/04/20 01:20:15;;;;;;;6.43;4.10;;;23.30;59.10;;;;;;4840099;29;20468;-74
2023/04/20 01:22:49;;;;;;;5.32;4.28;;;23.30;59.30;;;;;;4822652;29;20453;-74
2023/04/20 01:25:16;;;;;;;8.23;4.20;;;23.30;59.30;;;;;;4822986;29;20058;-74
2023/04/20 01:27:42;;;;;;;8.23;4.18;;;23.30;59.40;;;;;;4838242;29;20046;-74
2023/04/20 01:30:09;;;;;;;10.43;4.93;;;23.20;59.30;;;;;;4832630;29;20114;-75
2023/04/20 01:32:37;;;;;;;11.38;4.35;;;23.10;59.30;;;;;;4836110;29;20058;-75
2023/04/20 01:35:03;;;;;;;7.72;4.00;;;23.10;59.30;;;;;;4821736;29;20042;-72
2023/04/20 01:37:30;;;;;;;10.45;4.57;;;23.10;59.50;;;;;;4837116;29;20818;-75
2023/04/20 01:39:56;;;;;;;11.48;4.57;;;23.00;59.40;;;;;;4822339;29;20466;-75
2023/04/20 01:42:22;;;;;;;9.57;4.13;;;23.00;59.70;;;;;;4837293;29;20072;-74
2023/04/20 01:44:49;;;;;;;7.55;3.95;;;23.10;59.90;;;;;;4831668;29;20038;-74
2023/04/20 01:47:15;;;;;;;7.22;3.72;;;23.00;59.90;;;;;;4819663;29;20399;-75
2023/04/20 01:49:41;;;;;;;10.23;4.75;;;23.10;60.00;;;;;;4835338;29;20049;-74
2023/04/20 01:52:08;;;;;;;8.73;4.00;;;23.10;59.80;;;;;;4837335;29;20037;-76
2023/04/20 01:54:36;;;;;;;9.35;3.30;;;23.10;59.70;;;;;;4839326;29;20057;-75
2023/04/20 01:57:02;;;;;;;8.55;3.53;;;23.20;59.60;;;;;;4841357;29;20086;-75
2023/04/20 01:59:28;;;;;;;6.15;4.00;;;23.10;59.60;;;;;;4839198;29;20061;-75
2023/04/20 02:01:54;;;;;;;7.80;3.95;;;23.10;59.50;;;;;;4817312;29;20395;-75
2023/04/20 02:04:21;;;;;;;12.23;3.92;;;23.10;59.60;;;;;;4805563;29;20058;-75
2023/04/20 02:06:47;;;;;;;6.85;3.20;;;23.00;59.60;;;;;;4809595;29;20699;-75
2023/04/20 02:09:13;;;;;;;12.25;4.03;;;23.00;59.70;;;;;;4818469;29;20161;-75
2023/04/20 02:11:39;;;;;;;7.90;4.72;;;23.00;59.60;;;;;;4801097;29;20481;-75
2023/04/20 02:14:06;;;;;;;10.75;4.45;;;23.00;59.90;;;;;;4786060;29;20055;-74
2023/04/20 02:16:34;;;;;;;9.45;4.20;;;22.90;59.90;;;;;;4799000;29;20122;-73
2023/04/20 02:19:00;;;;;;;9.52;4.05;;;23.00;59.80;;;;;;4798799;29;20035;-75
2023/04/20 02:21:26;;;;;;;6.20;3.65;;;23.00;59.90;;;;;;4784828;29;20046;-72
2023/04/20 02:23:52;;;;;;;9.57;3.40;;;23.10;59.80;;;;;;4786277;29;20082;-75
2023/04/20 02:26:18;;;;;;;8.20;3.55;;;23.10;59.80;;;;;;4785419;29;20042;-74
2023/04/20 02:28:44;;;;;;;11.07;3.15;;;23.10;59.70;;;;;;4800850;29;20043;-75
2023/04/20 02:31:11;;;;;;;3.63;3.28;;;23.10;59.90;;;;;;4794208;29;20042;-75
2023/04/20 02:33:37;;;;;;;11.82;3.60;;;23.10;60.00;;;;;;4828877;29;20054;-75
2023/04/20 02:36:04;;;;;;;9.65;3.60;;;23.10;59.80;;;;;;4820755;29;20107;-74
2023/04/20 02:38:32;;;;;;;4.07;2.83;;;23.20;59.90;;;;;;4822499;29;20140;-74
2023/04/20 02:41:00;;;;;;;2.80;2.40;;;23.10;59.80;;;;;;4839571;29;20140;-74
2023/04/20 02:43:26;;;;;;;8.23;2.60;;;23.10;59.40;;;;;;4854152;29;20050;-76
2023/04/20 02:45:53;;;;;;;8.63;3.00;;;23.10;59.90;;;;;;4836088;29;20113;-75
2023/04/20 02:48:21;;;;;;;5.30;2.60;;;23.10;59.90;;;;;;4842863;29;20110;-75
2023/04/20 02:50:47;;;;;;;7.97;2.88;;;23.10;59.90;;;;;;4857874;29;20049;-75
2023/04/20 02:53:21;;;;;;;5.85;2.85;;;23.20;59.50;;;;;;4841164;29;20408;-75
2023/04/20 02:56:00;;;;;;;3.88;2.38;;;23.10;59.60;;;;;;4857951;29;20120;-75
2023/04/20 02:58:38;;;;;;;6.70;2.80;;;23.10;59.70;;;;;;4844417;29;20040;-74
2023/04/20 03:01:15;;;;;;;4.40;2.67;;;23.00;59.70;;;;;;4845776;29;20064;-75
2023/04/20 03:03:41;;;;;;;7.40;2.67;;;23.10;60.10;;;;;;4861642;29;20051;-75
2023/04/20 03:06:10;;;;;;;4.90;2.92;;;23.00;60.00;;;;;;4861464;29;20043;-75
2023/04/20 03:08:38;;;;;;;8.45;3.15;;;23.00;59.80;;;;;;4861194;29;20053;-75
2023/04/20 03:11:24;;;;;;;8.70;2.50;;;23.00;60.00;;;;;;4867593;29;20108;-75
2023/04/20 03:13:50;;;;;;;7.78;3.67;;;23.00;60.10;;;;;;4841706;29;20459;-75
2023/04/20 03:16:17;;;;;;;10.02;2.88;;;23.00;59.90;;;;;;4839275;29;20052;-74
2023/04/20 03:18:47;;;;;;;6.10;2.63;;;23.00;60.00;;;;;;4840827;29;20038;-75
2023/04/20 03:21:13;;;;;;;6.15;2.78;;;22.90;60.10;;;;;;4841148;29;20038;-75
2023/04/20 03:23:40;;;;;;;7.80;2.83;;;23.00;60.20;;;;;;4841328;29;20030;-75
2023/04/20 03:26:07;;;;;;;6.10;2.70;;;23.10;60.10;;;;;;4825179;29;20111;-75
2023/04/20 03:28:48;;;;;;;4.80;2.47;;;23.00;59.80;;;;;;4824636;29;20042;-74
2023/04/20 03:31:18;;;;;;;6.97;2.55;;;23.00;59.60;;;;;;4833246;29;20483;-74
2023/04/20 03:33:44;;;;;;;6.47;3.20;;;23.30;59.80;;;;;;4835088;29;20025;-75
2023/04/20 03:36:11;;;;;;;3.83;2.88;;;23.10;59.40;;;;;;4821297;29;20046;-75
2023/04/20 03:38:37;;;;;;;7.45;3.22;;;23.30;59.30;;;;;;4838208;29;20384;-75
2023/04/20 03:41:04;;;;;;;4.82;2.88;;;23.30;59.30;;;;;;4852364;29;20037;-75
2023/04/20 03:43:30;;;;;;;5.25;2.97;;;23.00;59.20;;;;;;4839493;29;20049;-75
2023/04/20 03:45:56;;;;;;;7.97;3.47;;;23.10;59.50;;;;;;4839800;29;20034;-74
2023/04/20 03:48:22;;;;;;;5.53;3.50;;;23.10;59.50;;;;;;4841231;29;20034;-74
2023/04/20 03:50:48;;;;;;;3.22;2.75;;;23.00;59.00;;;;;;4840991;29;20038;-74
2023/04/20 03:53:14;;;;;;;5.97;3.03;;;23.00;59.50;;;;;;4840580;29;20045;-75
2023/04/20 03:55:40;;;;;;;4.82;2.58;;;22.90;59.80;;;;;;4843295;29;20038;-74
2023/04/20 03:58:10;;;;;;;4.47;3.10;;;22.90;60.20;;;;;;4858177;29;20065;-75
2023/04/20 04:00:45;;;;;;;4.32;2.53;;;22.90;60.40;;;;;;4839906;29;20042;-73
2023/04/20 04:03:13;;;;;;;5.22;2.70;;;23.00;60.30;;;;;;4839143;29;20056;-75
2023/04/20 04:05:42;;;;;;;2.95;2.20;;;22.90;60.20;;;;;;4840010;29;20046;-74
2023/04/20 04:08:08;;;;;;;3.80;2.60;;;22.90;60.30;;;;;;4823490;29;20050;-75
2023/04/20 04:10:35;;;;;;;6.28;2.28;;;22.90;60.70;;;;;;4846672;29;20045;-74
2023/04/20 04:13:01;;;;;;;3.15;2.80;;;23.10;60.70;;;;;;4856427;29;20026;-75
2023/04/20 04:15:27;;;;;;;2.75;2.08;;;23.00;60.40;;;;;;4852938;29;20111;-75
2023/04/20 04:18:00;;;;;;;4.43;2.55;;;22.90;60.60;;;;;;4839668;29;20048;-75
2023/04/20 04:20:28;;;;;;;3.92;2.25;;;23.00;60.50;;;;;;4840526;29;20057;-75
2023/04/20 04:22:54;;;;;;;4.38;2.08;;;23.00;59.90;;;;;;4839311;29;20042;-74
2023/04/20 04:25:37;;;;;;;3.55;2.40;;;23.10;60.30;;;;;;4839033;29;20038;-74
2023/04/20 04:28:03;;;;;;;5.70;2.38;;;23.00;60.10;;;;;;4840310;29;20483;-75
2023/04/20 04:30:32;;;;;;;8.85;3.05;;;23.00;60.10;;;;;;4839166;29;20045;-75
2023/04/20 04:32:58;;;;;;;7.25;3.40;;;23.10;60.30;;;;;;4839357;29;20046;-75
2023/04/20 04:35:25;;;;;;;7.07;2.67;;;23.00;59.90;;;;;;4839227;29;20049;-75
2023/04/20 04:37:52;;;;;;;7.53;3.00;;;23.10;60.40;;;;;;4840085;29;20037;-75
2023/04/20 04:40:19;;;;;;;8.18;3.63;;;23.00;60.60;;;;;;4839801;29;20074;-76
2023/04/20 04:42:48;;;;;;;12.80;4.10;;;23.00;60.60;;;;;;4837637;29;20042;-74
2023/04/20 04:45:14;;;;;;;6.70;3.33;;;23.00;60.40;;;;;;4838168;29;20026;-75
2023/04/20 04:47:42;;;;;;;5.22;2.97;;;23.00;60.40;;;;;;4836353;29;20121;-75
2023/04/20 04:50:09;;;;;;;4.32;3.00;;;23.10;59.50;;;;;;4851164;29;20030;-75
2023/04/20 04:52:36;;;;;;;2.42;2.22;;;22.90;60.60;;;;;;4824727;29;20045;-75
2023/04/20 04:55:02;;;;;;;4.75;2.53;;;22.90;60.90;;;;;;4840599;29;20046;-75
2023/04/20 04:57:29;;;;;;;8.50;3.17;;;23.00;60.00;;;;;;4840917;29;20367;-74
2023/04/20 04:59:55;;;;;;;3.85;2.25;;;22.90;60.90;;;;;;4838073;29;20029;-74
2023/04/20 05:02:21;;;;;;;3.83;2.20;;;23.00;60.00;;;;;;4836434;29;20057;-75
2023/04/20 05:04:47;;;;;;;4.85;2.67;;;22.90;61.50;;;;;;4840137;29;20048;-75
2023/04/20 05:07:14;;;;;;;3.08;2.70;;;22.80;60.50;;;;;;4837346;29;20042;-75
2023/04/20 05:09:40;;;;;;;5.15;2.45;;;22.80;60.20;;;;;;4836945;29;20124;-75
2023/04/20 05:12:06;;;;;;;3.30;2.08;;;22.90;61.00;;;;;;4838384;29;20062;-75
2023/04/20 05:14:33;;;;;;;5.95;2.53;;;22.90;60.90;;;;;;4835160;29;20052;-75
2023/04/20 05:17:00;;;;;;;5.55;2.60;;;22.90;60.90;;;;;;4836697;29;20037;-75
2023/04/20 05:19:26;;;;;;;5.95;3.13;;;23.00;60.80;;;;;;4821073;29;20453;-75
2023/04/20 05:21:52;;;;;;;5.90;3.05;;;23.10;60.40;;;;;;4836904;29;20061;-74
2023/04/20 05:24:18;;;;;;;5.70;2.42;;;23.00;60.40;;;;;;4837593;29;20126;-76
2023/04/20 05:26:45;;;;;;;6.22;2.85;;;23.00;60.60;;;;;;4837268;29;20107;-74
2023/04/20 05:29:11;;;;;;;5.88;3.10;;;22.90;60.50;;;;;;4836512;29;20467;-75
2023/04/20 05:31:37;;;;;;;5.57;3.35;;;23.00;60.10;;;;;;4835790;29;20054;-74
2023/04/20 05:34:03;;;;;;;6.72;3.00;;;22.90;60.30;;;;;;4838248;29;20041;-75
2023/04/20 05:36:29;;;;;;;8.70;3.97;;;22.90;60.80;;;;;;4837102;29;20050;-74
2023/04/20 05:38:55;;;;;;;7.43;3.15;;;22.70;60.80;;;;;;4832508;29;20046;-75
2023/04/20 05:41:26;;;;;;;5.43;3.45;;;22.90;60.90;;;;;;4837853;29;20129;-73
2023/04/20 05:43:53;;;;;;;8.77;2.78;;;22.80;60.70;;;;;;4820056;29;20044;-75
2023/04/20 05:46:19;;;;;;;7.50;3.17;;;22.80;60.30;;;;;;4838547;29;20026;-74
2023/04/20 05:48:46;;;;;;;4.78;3.13;;;22.90;61.00;;;;;;4834191;29;20111;-75
2023/04/20 05:51:12;;;;;;;7.80;3.60;;;22.90;60.90;;;;;;4831415;29;20060;-73
2023/04/20 05:53:38;;;;;;;8.80;3.30;;;22.90;60.90;;;;;;4836065;29;20046;-72
2023/04/20 05:56:05;;;;;;;9.07;3.00;;;22.90;61.30;;;;;;4837606;29;20044;-72
2023/04/20 05:58:32;;;;;;;4.40;2.55;;;22.90;61.50;;;;;;4840460;29;20035;-73
2023/04/20 06:00:58;;;;;;;14.48;2.97;;;23.00;60.60;;;;;;4836218;29;20026;-73
2023/04/20 06:03:24;;;;;;;8.80;3.20;;;23.00;57.30;;;;;;4835873;29;20422;-73
2023/04/20 06:05:50;;;;;;;6.00;3.08;;;23.10;55.10;;;;;;4838337;29;20061;-73
2023/04/20 06:08:17;;;;;;;10.70;4.15;;;23.10;54.10;;;;;;4837250;29;20060;-72
2023/04/20 06:10:44;;;;;;;0.75;0.40;;;23.20;55.10;;;;;;4834758;29;20034;-73
2023/04/20 06:13:10;;;;;;;0.40;0.40;;;23.40;59.20;;;;;;4837905;29;20044;-73
2023/04/20 06:15:36;;;;;;;1.60;1.23;;;23.40;60.60;;;;;;4837257;29;20037;-74
2023/04/20 06:18:02;;;;;;;6.93;0.80;;;23.50;59.80;;;;;;4838065;29;20041;-75
2023/04/20 06:20:28;;;;;;;1.15;0.45;;;23.60;60.30;;;;;;4837819;29;20064;-75
2023/04/20 06:22:56;;;;;;;13.18;1.63;;;23.60;59.90;;;;;;4837979;29;20482;-75
2023/04/20 06:25:22;;;;;;;1.23;0.88;;;23.80;59.50;;;;;;4836736;29;20125;-71
2023/04/20 06:27:48;;;;;;;0.82;0.82;;;23.80;58.80;;;;;;4822649;29;20094;-72
2023/04/20 06:30:15;;;;;;;2.40;1.30;;;23.90;59.20;;;;;;4835860;29;20143;-75
2023/04/20 06:32:41;;;;;;;1.95;1.30;;;23.90;59.20;;;;;;4840525;29;20124;-75
2023/04/20 06:35:07;;;;;;;1.67;1.05;;;23.90;57.80;;;;;;4842982;29;20026;-72
2023/04/20 06:37:37;;;;;;;0.50;0.50;;;23.90;57.30;;;;;;4843518;29;20458;-72
2023/04/20 06:40:06;;;;;;;2.53;1.38;;;23.80;57.10;;;;;;4841288;29;20032;-71
2023/04/20 06:42:33;;;;;;;3.03;1.30;;;23.80;56.80;;;;;;4835656;29;20586;-72
2023/04/20 06:44:59;;;;;;;0.32;0.32;;;23.90;56.30;;;;;;4842651;29;20038;-73
2023/04/20 06:47:30;;;;;;;2.50;1.30;;;23.80;56.20;;;;;;4842324;29;20086;-75
2023/04/20 06:50:01;;;;;;;0.30;0.30;;;23.90;55.90;;;;;;4841019;29;20036;-74
2023/04/20 06:52:27;;;;;;;8.38;2.65;;;23.90;56.00;;;;;;4841795;29;20150;-75
2023/04/20 06:54:53;;;;;;;7.97;2.78;;;23.80;55.00;;;;;;4841388;29;20490;-75
2023/04/20 06:57:19;;;;;;;9.38;2.03;;;23.80;56.10;;;;;;4842271;29;20519;-74
2023/04/20 06:59:45;;;;;;;11.80;2.90;;;23.90;55.60;;;;;;4837657;29;20033;-74
2023/04/20 07:02:11;;;;;;;8.02;2.90;;;23.70;54.70;;;;;;4840845;29;20034;-74
2023/04/20 07:04:37;;;;;;;6.03;2.50;;;23.70;56.20;;;;;;4842881;29;20067;-74
2023/04/20 07:07:03;;;;;;;10.23;3.38;;;23.90;56.80;;;;;;4842509;29;20049;-74
2023/04/20 07:09:29;;;;;;;13.85;3.33;;;23.80;57.20;;;;;;4841914;29;20133;-76
2023/04/20 07:11:56;;;;;;;11.90;3.05;;;23.70;55.70;;;;;;4842038;29;20099;-75
2023/04/20 07:14:22;;;;;;;11.75;3.13;;;23.70;58.10;;;;;;4839978;29;20398;-75
2023/04/20 07:16:51;;;;;;;13.20;3.42;;;23.80;58.70;;;;;;4840636;29;20512;-73
2023/04/20 07:19:17;;;;;;;10.75;3.75;;;23.70;58.50;;;;;;4840323;29;20030;-74
2023/04/20 07:21:43;;;;;;;12.23;3.17;;;23.90;56.40;;;;;;4840088;29;20041;-73
2023/04/20 07:24:10;;;;;;;11.07;2.55;;;23.80;58.60;;;;;;4839638;29;20038;-74
2023/04/20 07:26:36;;;;;;;10.23;3.03;;;23.90;58.40;;;;;;4841536;29;20042;-77
2023/04/20 07:29:02;;;;;;;4.72;1.85;;;23.90;57.80;;;;;;4839422;29;20128;-74
2023/04/20 07:31:28;;;;;;;13.32;2.47;;;23.90;57.50;;;;;;4841001;29;20447;-74
2023/04/20 07:33:54;;;;;;;12.43;3.50;;;23.80;57.60;;;;;;4840617;29;20030;-75
2023/04/20 07:36:21;;;;;;;12.98;3.65;;;23.90;57.80;;;;;;4839309;29;20106;-74
2023/04/20 07:38:48;;;;;;;7.03;2.72;;;23.90;57.30;;;;;;4841066;29;20046;-75
2023/04/20 07:41:14;;;;;;;9.13;2.90;;;23.80;56.80;;;;;;4840471;29;20056;-74
2023/04/20 07:43:41;;;;;;;10.50;3.08;;;23.90;56.40;;;;;;4827148;29;20357;-77
2023/04/20 07:46:07;;;;;;;12.48;2.95;;;23.80;56.90;;;;;;4824132;29;20448;-75
2023/04/20 07:48:33;;;;;;;10.10;1.95;;;23.80;56.10;;;;;;4841545;29;20455;-76
2023/04/20 07:51:00;;;;;;;21.00;4.60;;;23.90;56.70;;;;;;4841286;29;20105;-73
2023/04/20 07:53:27;;;;;;;10.73;2.40;;;23.70;56.00;;;;;;4841254;29;20514;-73
2023/04/20 07:55:54;;;;;;;14.85;3.00;;;23.70;56.20;;;;;;4840978;29;20030;-74
2023/04/20 07:58:20;;;;;;;4.88;2.05;;;23.90;54.40;;;;;;4842250;29;20045;-75
2023/04/20 08:00:46;;;;;;;5.13;2.63;;;23.80;56.80;;;;;;4840005;29;20616;-75
2023/04/20 08:03:13;;;;;;;8.52;2.45;;;23.70;54.80;;;;;;4838145;29;20030;-75
2023/04/20 08:05:39;;;;;;;8.50;3.50;;;23.80;57.90;;;;;;4840274;29;20157;-74
2023/04/20 08:08:06;;;;;;;5.60;2.28;;;23.80;56.80;;;;;;4846022;29;20068;-76
2023/04/20 08:10:32;;;;;;;10.80;3.60;;;23.70;57.20;;;;;;4840379;29;20036;-75
2023/04/20 08:12:58;;;;;;;9.52;2.40;;;23.60;49.80;;;;;;4837538;29;20499;-76
2023/04/20 08:15:24;;;;;;;8.80;2.25;;;23.50;55.50;;;;;;4840465;29;20069;-75
2023/04/20 08:17:51;;;;;;;12.60;2.90;;;23.60;56.20;;;;;;4838692;29;20045;-75
2023/04/20 08:20:18;;;;;;;11.18;2.53;;;23.50;56.10;;;;;;4839544;29;20060;-74
2023/04/20 08:22:44;;;;;;;10.95;2.65;;;23.40;56.10;;;;;;4837715;29;20536;-75
2023/04/20 08:25:10;;;;;;;11.07;2.97;;;23.40;57.40;;;;;;4838475;29;20408;-76
2023/04/20 08:27:36;;;;;;;8.45;3.40;;;23.40;56.40;;;;;;4839420;29;20038;-76
2023/04/20 08:30:03;;;;;;;8.85;2.22;;;23.40;57.30;;;;;;4828733;29;20045;-74
2023/04/20 08:32:31;;;;;;;9.57;3.05;;;23.30;57.30;;;;;;4841774;29;20141;-75
2023/04/20 08:34:57;;;;;;;8.13;2.40;;;23.30;57.40;;;;;;4840837;29;20129;-75
2023/04/20 08:37:24;;;;;;;8.35;2.53;;;23.30;57.60;;;;;;4841303;29;20153;-75
2023/04/20 08:39:50;;;;;;;7.80;2.33;;;23.30;58.20;;;;;;4840809;29;20109;-76
2023/04/20 08:42:16;;;;;;;8.27;2.85;;;23.40;58.10;;;;;;4840166;29;20129;-75
2023/04/20 08:44:42;;;;;;;6.88;2.72;;;23.40;57.70;;;;;;4839791;29;20492;-75
2023/04/20 08:47:10;;;;;;;9.00;2.88;;;23.40;58.10;;;;;;4839012;29;20026;-74
2023/04/20 08:49:41;;;;;;;14.85;3.10;;;23.40;58.10;;;;;;4839736;29;20093;-75
2023/04/20 08:52:09;;;;;;;9.43;2.78;;;23.30;58.10;;;;;;4841324;29;20125;-76
2023/04/20 08:54:39;;;;;;;12.48;3.00;;;23.30;58.00;;;;;;4840276;29;20072;-75
2023/04/20 08:57:06;;;;;;;12.98;2.70;;;23.40;57.90;;;;;;4841594;29;20069;-76
2023/04/20 08:59:32;;;;;;;11.00;2.65;;;23.40;58.60;;;;;;4839419;29;20094;-73
2023/04/20 09:02:12;;;;;;;12.82;3.20;;;23.50;58.10;;;;;;4840459;29;20034;-75
2023/04/20 09:04:39;;;;;;;12.40;3.67;;;23.40;56.80;;;;;;4840398;29;20030;-76
2023/04/20 09:07:06;;;;;;;13.25;3.60;;;23.40;57.80;;;;;;4820584;29;20103;-74
2023/04/20 09:09:32;;;;;;;16.13;3.20;;;23.40;58.30;;;;;;4819771;29;20070;-76
2023/04/20 09:12:03;;;;;;;16.83;2.45;;;23.50;58.60;;;;;;4820005;29;20050;-75
2023/04/20 09:14:30;;;;;;;15.63;3.05;;;23.50;58.70;;;;;;4820311;29;20125;-74
2023/04/20 09:17:01;;;;;;;15.70;2.92;;;23.50;58.60;;;;;;4819961;29;20049;-74
2023/04/20 09:19:29;;;;;;;7.43;2.80;;;23.40;57.90;;;;;;4819600;29;20073;-74
2023/04/20 09:22:00;;;;;;;9.82;2.53;;;23.50;57.90;;;;;;4819985;29;20467;-74
2023/04/20 09:24:33;;;;;;;13.02;3.42;;;23.50;58.40;;;;;;4820539;29;20042;-74
2023/04/20 09:27:00;;;;;;;11.50;3.60;;;23.40;57.70;;;;;;4819562;29;20407;-74
2023/04/20 09:29:27;;;;;;;17.15;2.45;;;23.50;56.80;;;;;;4815720;29;20436;-74
2023/04/20 09:31:53;;;;;;;12.35;2.53;;;23.40;57.70;;;;;;4798131;29;20058;-75
2023/04/20 09:34:20;;;;;;;8.48;2.38;;;23.50;58.30;;;;;;4819018;29;20415;-74
2023/04/20 09:36:53;;;;;;;10.20;2.83;;;23.50;57.80;;;;;;4816556;29;20035;-74
2023/04/20 09:39:21;;;;;;;20.77;3.63;;;23.60;57.80;;;;;;4817133;29;20026;-72
2023/04/20 09:41:48;;;;;;;12.93;2.75;;;23.50;57.90;;;;;;4814020;29;20446;-75
2023/04/20 09:44:16;;;;;;;7.13;2.53;;;23.40;58.10;;;;;;4813791;29;20046;-73
2023/04/20 09:46:43;;;;;;;10.38;3.88;;;23.40;56.80;;;;;;4833297;29;20078;-72
2023/04/20 09:49:11;;;;;;;8.45;2.30;;;23.50;56.80;;;;;;4834073;29;20427;-74
2023/04/20 09:51:45;;;;;;;16.02;3.08;;;23.70;53.70;;;;;;4837223;29;20134;-74
2023/04/20 09:54:12;;;;;;;12.30;3.17;;;23.70;55.30;;;;;;4837247;29;20058;-72
2023/04/20 09:56:39;;;;;;;9.00;3.13;;;23.80;51.90;;;;;;4831022;29;20086;-75
2023/04/20 09:59:06;;;;;;;9.30;3.20;;;23.70;51.90;;;;;;4837664;29;20038;-75
2023/04/20 10:01:34;;;;;;;11.15;3.13;;;23.70;50.00;;;;;;4820091;29;20034;-74
2023/04/20 10:04:02;;;;;;;7.82;2.42;;;23.60;49.40;;;;;;4841207;29;20113;-69
2023/04/20 10:06:33;;;;;;;12.52;2.65;;;23.60;49.80;;;;;;4839340;29;20094;-73
2023/04/20 10:09:04;;;;;;;11.48;3.20;;;23.70;53.00;;;;;;4843912;29;20050;-74
2023/04/20 10:11:32;;;;;;;10.88;2.58;;;23.80;53.70;;;;;;4841196;29;20434;-73
2023/04/20 10:14:00;;;;;;;15.10;2.40;;;23.80;49.60;;;;;;4842893;29;20053;-73
2023/04/20 10:16:26;;;;;;;11.63;2.70;;;23.80;48.90;;;;;;4839764;29;20477;-74
2023/04/20 10:19:03;;;;;;;12.63;3.13;;;23.70;47.60;;;;;;4842203;29;20046;-73
2023/04/20 10:21:31;;;;;;;9.50;2.47;;;23.60;47.80;;;;;;4843122;29;20038;-73
2023/04/20 10:24:01;;;;;;;10.20;3.25;;;23.50;48.30;;;;;;4808754;29;20415;-75
2023/04/20 10:26:38;;;;;;;12.85;3.38;;;23.50;48.10;;;;;;4841966;29;20137;-74
2023/04/20 10:29:05;;;;;;;12.93;3.13;;;23.60;48.20;;;;;;4839271;29;20057;-74
2023/04/20 10:31:39;;;;;;;13.55;2.80;;;23.50;47.20;;;;;;4841991;29;20042;-74
2023/04/20 10:34:06;;;;;;;10.02;2.70;;;23.60;47.90;;;;;;4839077;29;20057;-74
2023/04/20 10:36:35;;;;;;;16.15;2.50;;;23.40;47.20;;;;;;4855397;29;20038;-75
2023/04/20 10:39:18;;;;;;;12.77;2.22;;;23.60;53.10;;;;;;4841142;29;20030;-73
2023/04/20 10:41:53;;;;;;;17.02;2.97;;;23.60;55.80;;;;;;4838171;29;20049;-75
2023/04/20 10:44:20;;;;;;;11.45;3.47;;;23.70;55.90;;;;;;4838651;29;20042;-73
2023/04/20 10:46:53;;;;;;;11.77;3.00;;;23.70;55.10;;;;;;4839740;29;20041;-73
2023/04/20 10:49:24;;;;;;;11.00;2.83;;;23.70;56.60;;;;;;4841533;29;20034;-74
2023/04/20 10:51:51;;;;;;;11.60;2.08;;;23.70;55.90;;;;;;4841691;29;20042;-72
2023/04/20 10:54:18;;;;;;;6.90;2.28;;;23.70;55.90;;;;;;4839590;29;20040;-74
2023/04/20 10:56:47;;;;;;;11.13;2.50;;;23.70;55.10;;;;;;4842833;29;20034;-74
2023/04/20 10:59:15;;;;;;;12.60;3.35;;;23.50;55.30;;;;;;4840103;29;20050;-75
2023/04/20 11:01:42;;;;;;;9.20;2.33;;;23.60;54.00;;;;;;4842077;29;20038;-73
2023/04/20 11:04:09;;;;;;;14.07;3.78;;;23.50;54.60;;;;;;4842665;29;20037;-73
2023/04/20 11:06:38;;;;;;;17.55;3.65;;;23.50;56.40;;;;;;4843246;29;20049;-73
2023/04/20 11:09:25;;;;;;;13.00;3.15;;;23.40;57.30;;;;;;4842538;29;20049;-74
2023/04/20 11:11:59;;;;;;;13.52;2.47;;;23.50;57.70;;;;;;4840091;29;20042;-73
2023/04/20 11:14:25;;;;;;;7.30;2.78;;;23.50;57.50;;;;;;4840831;29;20030;-72
2023/04/20 11:16:52;;;;;;;12.90;3.20;;;23.60;57.60;;;;;;4840068;29;20441;-74
2023/04/20 11:19:32;;;;;;;12.57;2.63;;;23.60;56.70;;;;;;4839593;29;20044;-76
2023/04/20 11:22:00;;;;;;;12.68;3.03;;;23.50;55.70;;;;;;4835959;29;20057;-72
2023/04/20 11:24:28;;;;;;;8.80;2.33;;;23.60;56.40;;;;;;4842140;29;20038;-74
2023/04/20 11:26:54;;;;;;;15.60;2.67;;;23.50;57.10;;;;;;4820648;29;20137;-72
2023/04/20 11:29:37;;;;;;;8.82;2.10;;;23.60;55.40;;;;;;4820299;29;20107;-74
2023/04/20 11:32:08;;;;;;;12.80;3.08;;;23.60;57.10;;;;;;4815801;29;20066;-74
2023/04/20 11:34:36;;;;;;;5.40;2.15;;;23.60;55.30;;;;;;4792446;29;20054;-74
2023/04/20 11:37:06;;;;;;;7.32;2.65;;;23.60;56.80;;;;;;4806598;29;20050;-72
2023/04/20 11:39:33;;;;;;;8.73;2.33;;;23.60;57.10;;;;;;4821110;29;20061;-74
2023/04/20 11:42:00;;;;;;;6.32;2.33;;;23.50;57.30;;;;;;4820555;29;20042;-70
2023/04/20 11:44:26;;;;;;;10.25;2.65;;;23.60;56.10;;;;;;4820633;29;20526;-71
2023/04/20 11:46:55;;;;;;;12.50;3.30;;;23.70;57.20;;;;;;4819898;29;20046;-70
2023/04/20 11:49:26;;;;;;;8.07;2.78;;;23.70;55.00;;;;;;4804669;29;20111;-71
2023/04/20 11:51:52;;;;;;;9.77;2.80;;;23.50;56.90;;;;;;4805032;29;20066;-71
2023/04/20 11:54:18;;;;;;;9.20;2.60;;;23.60;56.90;;;;;;4791152;29;20034;-70
2023/04/20 11:56:45;;;;;;;10.48;2.88;;;23.60;57.20;;;;;;4821205;29;20517;-72
2023/04/20 11:59:18;;;;;;;14.50;3.28;;;23.60;56.40;;;;;;4841268;29;20049;-70
2023/04/20 12:01:44;;;;;;;12.85;2.83;;;23.60;56.30;;;;;;4843414;29;20043;-71
2023/04/20 12:04:10;;;;;;;16.65;3.22;;;23.60;57.00;;;;;;4838425;29;20097;-73
2023/04/20 12:06:36;;;;;;;5.88;3.25;;;23.60;56.50;;;;;;4841518;29;20402;-73
2023/04/20 12:09:05;;;;;;;12.15;2.83;;;23.50;56.60;;;;;;4841470;29;20228;-72
2023/04/20 12:11:31;;;;;;;12.55;3.28;;;23.50;56.70;;;;;;4844398;29;20068;-74
2023/04/20 12:13:57;;;;;;;8.95;2.60;;;23.50;57.40;;;;;;4842828;29;20099;-72
2023/04/20 12:16:23;;;;;;;10.40;2.75;;;23.40;57.50;;;;;;4839075;29;20026;-74
2023/04/20 12:18:49;;;;;;;5.13;2.17;;;23.50;57.60;;;;;;4837431;29;20206;-74
2023/04/20 12:21:15;;;;;;;8.75;2.30;;;23.40;56.90;;;;;;4835571;29;20050;-73
2023/04/20 12:23:43;;;;;;;9.98;2.95;;;23.50;57.30;;;;;;4837449;29;20049;-73
2023/04/20 12:26:09;;;;;;;9.40;2.85;;;23.60;57.70;;;;;;4839028;29;20116;-74
2023/04/20 12:28:35;;;;;;;10.30;2.78;;;23.50;57.30;;;;;;4838676;29;20058;-73
2023/04/20 12:31:01;;;;;;;13.90;3.00;;;23.50;57.30;;;;;;4836137;29;20146;-73
2023/04/20 12:33:27;;;;;;;15.32;2.33;;;23.50;57.50;;;;;;4838060;29;20054;-74
2023/04/20 12:35:53;;;;;;;9.40;2.40;;;23.50;57.80;;;;;;4820768;29;20055;-71
2023/04/20 12:38:19;;;;;;;16.13;3.15;;;23.50;58.00;;;;;;4819347;29;20129;-73
2023/04/20 12:40:45;;;;;;;14.43;4.35;;;23.50;57.70;;;;;;4819983;29;20088;-76
2023/04/20 12:43:11;;;;;;;8.73;2.55;;;23.60;57.80;;;;;;4804084;29;20168;-73
2023/04/20 12:45:37;;;;;;;10.05;2.80;;;23.40;57.90;;;;;;4819733;29;20038;-75